Time;durP1;ratioP1;P1;durP2;ratioP2;P2;SDS_P1;SDS_P2;PMS_P1;PMS_P2;Temp;Humidity;BMP_temperature;BMP_pressure;BME280_temperature;BME280_humidity;BME280_pressure;Samples;Min_cycle;Max_cycle;Signal;HPM_P1;HPM_P2
2023/08/17 00:01:46;;;;;;;4.18;2.40;;;;;;;17.29;100.00;98844.63;4174025;28;20459;-74
2023/08/17 00:03:46;;;;;;;4.95;2.00;;;;;;;17.27;100.00;98836.66;4172937;28;20456;-74
2023/08/17 00:05:47;;;;;;;3.90;1.95;;;;;;;17.27;100.00;98841.44;4173767;28;20085;-74
2023/08/17 00:07:47;;;;;;;6.03;1.90;;;;;;;17.28;100.00;98841.03;4174270;28;20144;-74
2023/08/17 00:09:47;;;;;;;4.47;1.75;;;;;;;17.31;100.00;98847.81;4173419;28;20073;-74
2023/08/17 00:11:48;;;;;;;2.97;1.80;;;;;;;17.37;100.00;98841.31;4173390;28;20052;-74
2023/08/17 00:13:48;;;;;;;4.35;1.73;;;;;;;17.44;100.00;98848.06;4173113;28;20060;-74
2023/08/17 00:15:49;;;;;;;2.97;1.70;;;;;;;17.45;100.00;98841.25;4173422;28;20045;-74
2023/08/17 00:17:49;;;;;;;4.53;1.77;;;;;;;17.47;100.00;98845.25;4172706;28;20261;-74
2023/08/17 00:19:50;;;;;;;3.88;1.83;;;;;;;17.47;100.00;98855.66;4173567;28;20048;-74
2023/08/17 00:21:51;;;;;;;5.53;1.92;;;;;;;17.42;100.00;98849.28;4173837;28;20428;-73
2023/08/17 00:23:51;;;;;;;4.35;2.13;;;;;;;17.38;100.00;98845.75;4172619;28;20052;-74
2023/08/17 00:25:51;;;;;;;4.20;2.20;;;;;;;17.34;100.00;98835.78;4173623;28;20045;-74
2023/08/17 00:27:52;;;;;;;4.72;1.88;;;;;;;17.33;100.00;98823.00;4173372;28;20064;-74
2023/08/17 00:29:52;;;;;;;4.85;1.95;;;;;;;17.37;100.00;98824.56;4173776;28;20653;-73
2023/08/17 00:31:52;;;;;;;3.70;2.00;;;;;;;17.41;100.00;98825.31;4173143;28;20045;-74
2023/08/17 00:33:53;;;;;;;3.90;1.90;;;;;;;17.46;100.00;98817.66;4172898;28;20059;-73
2023/08/17 00:35:53;;;;;;;3.42;1.77;;;;;;;17.49;100.00;98817.66;4174158;28;20094;-73
2023/08/17 00:37:53;;;;;;;2.97;1.77;;;;;;;17.53;100.00;98812.00;4173223;28;20055;-74
2023/08/17 00:39:54;;;;;;;3.08;1.83;;;;;;;17.51;100.00;98820.03;4173662;28;20072;-74
2023/08/17 00:41:54;;;;;;;9.35;2.47;;;;;;;17.48;100.00;98829.25;4173901;28;20643;-74
2023/08/17 00:43:54;;;;;;;4.80;2.15;;;;;;;17.48;100.00;98820.88;4172882;28;20549;-74
2023/08/17 00:45:55;;;;;;;4.32;1.88;;;;;;;17.45;100.00;98830.88;4173637;28;20048;-74
2023/08/17 00:47:57;;;;;;;6.47;2.15;;;;;;;17.45;100.00;98821.69;4173542;28;20400;-73
2023/08/17 00:49:59;;;;;;;5.25;2.63;;;;;;;17.44;100.00;98834.09;4173585;28;20056;-74
2023/08/17 00:52:00;;;;;;;4.25;2.80;;;;;;;17.39;100.00;98826.97;4172539;28;20045;-74
2023/08/17 00:54:02;;;;;;;4.60;2.73;;;;;;;17.37;100.00;98823.75;4171984;28;20076;-75
2023/08/17 00:56:03;;;;;;;4.68;2.80;;;;;;;17.32;100.00;98819.44;4173389;28;20102;-74
2023/08/17 00:58:03;;;;;;;5.88;2.63;;;;;;;17.25;100.00;98813.91;4172578;28;20041;-74
2023/08/17 01:00:04;;;;;;;5.03;3.00;;;;;;;17.24;100.00;98820.69;4171894;28;20041;-74
2023/08/17 01:02:05;;;;;;;7.03;2.92;;;;;;;17.26;100.00;98828.69;4172747;28;20538;-74
2023/08/17 01:04:05;;;;;;;3.92;2.42;;;;;;;17.27;100.00;98828.25;4172474;28;20059;-74
2023/08/17 01:06:06;;;;;;;4.13;2.60;;;;;;;17.31;100.00;98825.44;4172176;28;20025;-74
2023/08/17 01:08:06;;;;;;;4.82;2.60;;;;;;;17.33;100.00;98826.59;4173283;28;20037;-74
2023/08/17 01:10:08;;;;;;;5.25;3.05;;;;;;;17.36;100.00;98813.78;4173187;28;20120;-74
2023/08/17 01:12:18;;;;;;;8.00;3.10;;;;;;;17.36;100.00;98824.97;4173386;28;20033;-74
2023/08/17 01:14:24;;;;;;;5.53;2.50;;;;;;;17.31;100.00;98823.44;4171545;28;20043;-74
2023/08/17 01:16:34;;;;;;;6.30;2.72;;;;;;;17.26;100.00;98812.69;4172804;28;20099;-74
2023/08/17 01:18:40;;;;;;;5.00;2.78;;;;;;;17.26;100.00;98801.50;4172760;28;20474;-74
2023/08/17 01:20:41;;;;;;;4.00;2.42;;;;;;;17.27;100.00;98794.69;4172461;28;20366;-74
2023/08/17 01:22:44;;;;;;;6.55;3.10;;;;;;;17.23;100.00;98784.78;4172352;28;20052;-74
2023/08/17 01:24:45;;;;;;;5.15;2.65;;;;;;;17.23;100.00;98770.78;4172912;28;20067;-74
2023/08/17 01:26:45;;;;;;;5.78;2.83;;;;;;;17.20;100.00;98768.81;4172338;28;20041;-74
2023/08/17 01:28:47;;;;;;;6.15;2.47;;;;;;;17.21;100.00;98762.00;4171678;28;20466;-74
2023/08/17 01:30:57;;;;;;;4.00;2.00;;;;;;;17.17;100.00;98747.28;4171790;28;20593;-74
2023/08/17 01:33:03;;;;;;;5.10;2.22;;;;;;;17.13;100.00;98738.94;4171666;28;20118;-74
2023/08/17 01:35:27;;;;;;;8.32;2.60;;;;;;;17.12;100.00;98746.50;4173200;28;20628;-74
2023/08/17 01:37:29;;;;;;;4.93;2.58;;;;;;;17.11;100.00;98746.94;4136604;28;20555;-74
2023/08/17 01:39:43;;;;;;;5.93;2.65;;;;;;;17.07;100.00;98727.41;4172980;28;20048;-74
2023/08/17 01:41:46;;;;;;;5.00;2.70;;;;;;;17.04;100.00;98725.44;4172768;28;20132;-74
2023/08/17 01:43:48;;;;;;;4.95;2.80;;;;;;;17.04;100.00;98719.84;4171517;28;20469;-74
2023/08/17 01:45:49;;;;;;;6.78;4.03;;;;;;;17.01;100.00;98717.09;4172374;28;20131;-74
2023/08/17 01:47:49;;;;;;;5.43;3.83;;;;;;;17.00;100.00;98726.69;4172767;28;20788;-74
2023/08/17 01:49:49;;;;;;;8.63;3.95;;;;;;;17.00;100.00;98718.31;4172629;28;20079;-74
2023/08/17 01:51:50;;;;;;;6.30;4.13;;;;;;;17.02;100.00;98713.88;4172562;28;20047;-74
2023/08/17 01:53:51;;;;;;;5.82;4.00;;;;;;;17.02;100.00;98716.69;4172171;28;20556;-74
2023/08/17 01:55:51;;;;;;;6.55;3.33;;;;;;;17.07;100.00;98733.00;4172587;28;20198;-74
2023/08/17 01:57:52;;;;;;;6.80;3.65;;;;;;;17.11;100.00;98730.97;4171951;28;20087;-74
2023/08/17 01:59:52;;;;;;;6.47;3.05;;;;;;;17.11;100.00;98732.97;4172572;28;20408;-74
2023/08/17 02:01:52;;;;;;;5.35;3.30;;;;;;;17.06;100.00;98728.63;4172858;28;20479;-73
2023/08/17 02:03:52;;;;;;;4.97;3.55;;;;;;;17.04;100.00;98730.22;4171597;28;20073;-74
2023/08/17 02:05:53;;;;;;;8.00;4.15;;;;;;;17.01;100.00;98726.28;4172591;28;20128;-74
2023/08/17 02:07:53;;;;;;;7.20;2.97;;;;;;;17.02;100.00;98738.25;4172356;28;20497;-74
2023/08/17 02:09:54;;;;;;;5.88;2.92;;;;;;;17.01;100.00;98733.88;4172560;28;20045;-74
2023/08/17 02:11:54;;;;;;;5.90;2.90;;;;;;;16.98;100.00;98726.31;4172170;28;20139;-74
2023/08/17 02:13:54;;;;;;;3.65;2.58;;;;;;;17.02;100.00;98736.25;4171593;28;20454;-73
2023/08/17 02:15:55;;;;;;;3.88;2.80;;;;;;;17.04;100.00;98733.03;4172532;28;20037;-74
2023/08/17 02:17:57;;;;;;;3.47;2.42;;;;;;;17.08;100.00;98734.59;4172029;28;20052;-74
2023/08/17 02:19:57;;;;;;;5.43;2.90;;;;;;;17.06;100.00;98733.44;4171689;28;20040;-74
2023/08/17 02:21:57;;;;;;;5.15;2.30;;;;;;;17.03;100.00;98723.06;4172748;28;20135;-74
2023/08/17 02:23:58;;;;;;;3.47;2.30;;;;;;;16.98;100.00;98710.34;4171586;28;20080;-74
2023/08/17 02:25:58;;;;;;;4.32;2.13;;;;;;;16.99;100.00;98714.72;4171611;28;20553;-74
2023/08/17 02:27:59;;;;;;;3.97;2.35;;;;;;;16.96;100.00;98706.34;4174560;28;20422;-73
2023/08/17 02:30:00;;;;;;;3.95;1.92;;;;;;;16.96;100.00;98711.94;4175750;28;20049;-74
2023/08/17 02:32:00;;;;;;;5.38;2.75;;;;;;;16.90;100.00;98716.44;4175420;28;20536;-74
2023/08/17 02:34:04;;;;;;;2.83;1.85;;;;;;;16.89;100.00;98710.06;4206586;28;20089;-74
2023/08/17 02:36:05;;;;;;;3.63;2.30;;;;;;;16.88;100.00;98702.88;4175545;28;20029;-74
2023/08/17 02:38:05;;;;;;;3.50;2.30;;;;;;;16.85;100.00;98718.44;4175645;28;20449;-74
2023/08/17 02:40:06;;;;;;;3.17;2.15;;;;;;;16.84;100.00;98721.66;4175786;28;20087;-74
2023/08/17 02:42:07;;;;;;;2.70;2.03;;;;;;;16.86;100.00;98716.44;4175499;28;20033;-74
2023/08/17 02:44:07;;;;;;;2.88;1.98;;;;;;;16.86;100.00;98724.81;4174713;28;20032;-74
2023/08/17 02:46:07;;;;;;;3.03;2.28;;;;;;;16.88;100.00;98722.44;4175092;28;20037;-74
2023/08/17 02:48:08;;;;;;;2.95;1.77;;;;;;;16.90;100.00;98716.44;4175139;28;20069;-74
2023/08/17 02:50:08;;;;;;;4.43;2.20;;;;;;;16.90;100.00;98710.84;4175847;28;20044;-74
2023/08/17 02:52:09;;;;;;;5.22;2.50;;;;;;;16.89;100.00;98698.88;4175161;28;20480;-74
2023/08/17 02:54:09;;;;;;;2.85;2.00;;;;;;;16.88;100.00;98693.66;4174835;28;20037;-74
2023/08/17 02:56:12;;;;;;;7.93;2.30;;;;;;;16.88;100.00;98690.88;4174541;28;20029;-74
2023/08/17 02:58:13;;;;;;;9.27;2.42;;;;;;;16.85;100.00;98689.72;4175594;28;20059;-74
2023/08/17 03:00:14;;;;;;;3.63;1.83;;;;;;;16.83;100.00;98683.75;4175034;28;20034;-74
2023/08/17 03:02:14;;;;;;;5.28;2.50;;;;;;;16.83;100.00;98687.34;4175050;28;20029;-74
2023/08/17 03:04:14;;;;;;;3.13;2.10;;;;;;;16.80;100.00;98685.38;4174364;28;20025;-74
2023/08/17 03:06:14;;;;;;;3.50;2.10;;;;;;;16.78;100.00;98687.78;4174845;28;20028;-74
2023/08/17 03:08:15;;;;;;;3.35;2.30;;;;;;;16.77;100.00;98683.41;4175161;28;20025;-74
2023/08/17 03:10:15;;;;;;;2.20;1.70;;;;;;;16.80;100.00;98684.59;4175281;28;20812;-74
2023/08/17 03:12:15;;;;;;;2.75;2.10;;;;;;;16.81;100.00;98694.56;4174729;28;20111;-73
2023/08/17 03:14:16;;;;;;;3.63;2.10;;;;;;;16.81;100.00;98686.97;4174414;28;20029;-73
2023/08/17 03:16:16;;;;;;;3.85;2.03;;;;;;;16.82;100.00;98684.97;4174908;28;20033;-74
2023/08/17 03:18:17;;;;;;;2.25;1.90;;;;;;;16.84;100.00;98682.53;4174925;28;20056;-74
2023/08/17 03:20:17;;;;;;;4.20;2.00;;;;;;;16.84;100.00;98688.91;4174676;28;20144;-73
2023/08/17 03:22:17;;;;;;;2.72;1.85;;;;;;;16.85;100.00;98684.13;4174786;28;20061;-74
2023/08/17 03:24:17;;;;;;;3.72;2.10;;;;;;;16.82;100.00;98680.16;4173023;28;20116;-74
2023/08/17 03:26:18;;;;;;;2.90;1.95;;;;;;;16.84;100.00;98680.53;4174172;28;20029;-74
2023/08/17 03:28:18;;;;;;;2.83;1.85;;;;;;;16.82;100.00;98668.19;4174981;28;20037;-73
2023/08/17 03:30:18;;;;;;;2.47;1.77;;;;;;;16.79;100.00;98669.00;4174157;28;20041;-74
2023/08/17 03:32:19;;;;;;;2.42;2.13;;;;;;;16.74;100.00;98663.91;4174370;28;20033;-74
2023/08/17 03:34:19;;;;;;;3.08;1.85;;;;;;;16.73;100.00;98667.91;4174204;28;20029;-74
2023/08/17 03:36:19;;;;;;;3.08;2.15;;;;;;;16.71;100.00;98668.28;4173783;28;20284;-74
2023/08/17 03:38:20;;;;;;;2.85;2.08;;;;;;;16.69;100.00;98665.13;4173486;28;20384;-73
2023/08/17 03:40:20;;;;;;;2.75;2.10;;;;;;;16.64;100.00;98668.34;4172845;28;20056;-74
2023/08/17 03:42:21;;;;;;;3.05;2.35;;;;;;;16.62;100.00;98667.97;4174204;28;20186;-74
2023/08/17 03:44:21;;;;;;;2.90;1.88;;;;;;;16.62;100.00;98669.94;4173795;28;20404;-73
2023/08/17 03:46:21;;;;;;;3.20;2.00;;;;;;;16.64;100.00;98667.56;4175380;28;20091;-74
2023/08/17 03:48:22;;;;;;;6.50;3.25;;;;;;;16.61;100.00;98674.75;4174360;28;20128;-74
2023/08/17 03:50:25;;;;;;;3.05;1.77;;;;;;;16.59;100.00;98666.00;4174056;28;20436;-73
2023/08/17 03:52:25;;;;;;;3.38;2.13;;;;;;;16.61;100.00;98674.75;4174371;28;20041;-74
2023/08/17 03:54:26;;;;;;;3.60;1.92;;;;;;;16.60;100.00;98666.78;4173648;28;20499;-73
2023/08/17 03:56:26;;;;;;;11.35;2.63;;;;;;;16.61;100.00;98662.78;4174049;28;20231;-73
2023/08/17 03:58:31;;;;;;;7.88;2.88;;;;;;;16.60;100.00;98658.41;4173953;28;20053;-74
2023/08/17 04:00:32;;;;;;;4.75;2.05;;;;;;;16.63;100.00;98663.16;4173411;28;20041;-73
2023/08/17 04:02:32;;;;;;;3.38;2.35;;;;;;;16.60;100.00;98661.22;4173547;28;20375;-73
2023/08/17 04:04:32;;;;;;;2.75;2.00;;;;;;;16.63;100.00;98661.16;4174143;28;20045;-74
2023/08/17 04:06:34;;;;;;;4.13;2.22;;;;;;;16.62;100.00;98664.38;4174569;28;20396;-74
2023/08/17 04:08:34;;;;;;;3.45;2.20;;;;;;;16.63;100.00;98663.16;4170497;28;20037;-74
2023/08/17 04:10:34;;;;;;;4.40;2.40;;;;;;;16.62;100.00;98656.00;4173851;28;20045;-73
2023/08/17 04:12:35;;;;;;;4.20;2.03;;;;;;;16.63;100.00;98660.38;4172936;28;20040;-73
2023/08/17 04:14:35;;;;;;;5.25;2.33;;;;;;;16.63;100.00;98666.75;4173342;28;20060;-73
2023/08/17 04:16:35;;;;;;;2.55;1.90;;;;;;;16.61;100.00;98660.78;4167840;28;20067;-74
2023/08/17 04:18:36;;;;;;;4.07;2.10;;;;;;;16.63;100.00;98663.94;4169793;28;20412;-74
2023/08/17 04:20:36;;;;;;;5.65;2.20;;;;;;;16.63;100.00;98663.16;4165738;28;20049;-74
2023/08/17 04:22:36;;;;;;;5.75;2.30;;;;;;;16.65;100.00;98667.16;4168799;28;20057;-73
2023/08/17 04:24:37;;;;;;;2.83;2.15;;;;;;;16.69;100.00;98667.13;4171859;28;20037;-73
2023/08/17 04:26:38;;;;;;;2.25;1.77;;;;;;;16.72;100.00;98671.91;4170173;28;20052;-73
2023/08/17 04:28:38;;;;;;;2.60;2.10;;;;;;;16.73;100.00;98663.09;4167949;28;20100;-73
2023/08/17 04:30:39;;;;;;;2.65;1.80;;;;;;;16.74;100.00;98664.69;4172110;28;20040;-74
2023/08/17 04:32:39;;;;;;;3.45;2.22;;;;;;;16.74;100.00;98656.31;4169966;28;20116;-73
2023/08/17 04:34:41;;;;;;;6.18;2.20;;;;;;;16.73;100.00;98665.91;4169411;28;20052;-74
2023/08/17 04:36:42;;;;;;;2.45;2.10;;;;;;;16.71;100.00;98659.91;4169442;28;20040;-74
2023/08/17 04:38:42;;;;;;;4.18;2.55;;;;;;;16.71;100.00;98659.13;4171101;28;20041;-73
2023/08/17 04:40:43;;;;;;;3.58;1.98;;;;;;;16.68;100.00;98655.13;4170974;28;20447;-74
2023/08/17 04:42:43;;;;;;;4.78;2.20;;;;;;;16.66;100.00;98665.94;4172575;28;20564;-73
2023/08/17 04:44:43;;;;;;;5.07;2.05;;;;;;;16.62;100.00;98662.38;4173068;28;20183;-73
2023/08/17 04:46:43;;;;;;;3.05;2.15;;;;;;;16.60;100.00;98664.78;4173611;28;20045;-73
2023/08/17 04:48:44;;;;;;;3.60;2.22;;;;;;;16.56;100.00;98664.03;4171037;28;20041;-73
2023/08/17 04:50:44;;;;;;;2.13;1.70;;;;;;;16.55;100.00;98666.03;4171044;28;20037;-73
2023/08/17 04:52:45;;;;;;;5.45;2.33;;;;;;;16.52;100.00;98668.84;4163513;28;20044;-73
2023/08/17 04:54:45;;;;;;;2.72;1.77;;;;;;;16.52;100.00;98668.84;4164645;28;20190;-73
2023/08/17 04:56:46;;;;;;;6.10;2.35;;;;;;;16.52;100.00;98666.84;4168742;28;20129;-73
2023/08/17 04:58:46;;;;;;;3.10;1.63;;;;;;;16.52;100.00;98678.03;4164327;28;20201;-73
2023/08/17 05:00:47;;;;;;;3.55;1.90;;;;;;;16.56;100.00;98680.81;4194455;28;20048;-73
2023/08/17 05:02:47;;;;;;;2.50;1.77;;;;;;;16.57;100.00;98676.81;4161889;28;20048;-73
2023/08/17 05:04:47;;;;;;;2.97;2.20;;;;;;;16.55;100.00;98680.00;4165637;28;20465;-73
2023/08/17 05:06:47;;;;;;;2.47;2.25;;;;;;;16.56;100.00;98689.19;4110725;28;20139;-73
2023/08/17 05:08:48;;;;;;;3.95;1.80;;;;;;;16.58;100.00;98681.97;4164262;28;20398;-73
2023/08/17 05:10:48;;;;;;;3.42;2.63;;;;;;;16.64;100.00;98684.31;4166530;28;20087;-73
2023/08/17 05:12:49;;;;;;;3.17;2.60;;;;;;;16.73;100.00;98685.44;4164467;28;20053;-73
2023/08/17 05:14:49;;;;;;;5.07;2.53;;;;;;;16.72;100.00;98681.06;4164220;28;20083;-73
2023/08/17 05:16:50;;;;;;;3.80;2.70;;;;;;;16.75;100.00;98685.81;4163513;28;20500;-73
2023/08/17 05:18:50;;;;;;;8.43;3.40;;;;;;;16.77;100.00;98685.41;4163840;28;20659;-73
2023/08/17 05:20:50;;;;;;;5.25;2.60;;;;;;;16.78;100.00;98678.59;4170354;28;20652;-72
2023/08/17 05:22:50;;;;;;;7.78;2.88;;;;;;;16.83;100.00;98692.13;4170984;28;20412;-73
2023/08/17 05:24:51;;;;;;;6.40;3.00;;;;;;;16.84;100.00;98691.72;4171563;28;20049;-72
2023/08/17 05:26:51;;;;;;;3.63;2.60;;;;;;;16.88;100.00;98680.53;4172373;28;20057;-73
2023/08/17 05:28:51;;;;;;;4.38;3.20;;;;;;;16.91;100.00;98687.28;4165259;28;20068;-73
2023/08/17 05:30:53;;;;;;;4.47;2.90;;;;;;;16.90;100.00;98685.69;4170525;28;20292;-73
2023/08/17 05:32:53;;;;;;;7.68;2.55;;;;;;;16.95;100.00;98680.41;4172323;28;20051;-73
2023/08/17 05:34:54;;;;;;;3.72;2.55;;;;;;;17.01;100.00;98687.16;4172692;28;20132;-73
2023/08/17 05:36:55;;;;;;;5.68;2.80;;;;;;;17.11;100.00;98689.03;4171562;28;20127;-73
2023/08/17 05:38:55;;;;;;;5.75;2.40;;;;;;;17.16;100.00;98689.78;4172854;28;20044;-73
2023/08/17 05:40:56;;;;;;;4.07;2.40;;;;;;;17.23;100.00;98690.50;4172374;28;20064;-73
2023/08/17 05:42:57;;;;;;;3.78;2.70;;;;;;;17.31;100.00;98694.78;4171579;28;20049;-73
2023/08/17 05:44:57;;;;;;;3.63;2.45;;;;;;;17.34;100.00;98685.56;4172540;28;20067;-73
2023/08/17 05:46:57;;;;;;;4.82;2.63;;;;;;;17.38;100.00;98680.72;4166532;28;20057;-73
2023/08/17 05:48:59;;;;;;;4.60;2.42;;;;;;;17.46;100.00;98689.00;4165797;28;20084;-73
2023/08/17 05:50:59;;;;;;;4.07;2.58;;;;;;;17.53;100.00;98688.91;4167692;28;20148;-73
2023/08/17 05:52:59;;;;;;;3.88;2.72;;;;;;;17.55;100.00;98686.50;4170390;28;20064;-73
2023/08/17 05:55:00;;;;;;;6.03;2.35;;;;;;;17.60;100.00;98692.41;4171822;28;20053;-73
2023/08/17 05:57:01;;;;;;;4.63;2.90;;;;;;;17.61;100.00;98685.59;4171764;28;20408;-73
2023/08/17 05:59:01;;;;;;;3.13;2.40;;;;;;;17.65;100.00;98686.38;4172185;28;20667;-73
2023/08/17 06:01:06;;;;;;;4.32;2.65;;;;;;;17.78;100.00;98688.59;4171799;28;20099;-73
2023/08/17 06:03:07;;;;;;;5.05;2.80;;;;;;;17.85;100.00;98680.13;4170314;28;20485;-73
2023/08/17 06:05:08;;;;;;;3.30;2.70;;;;;;;17.95;100.00;98696.75;4171421;28;20059;-73
2023/08/17 06:07:09;;;;;;;5.17;2.03;;;;;;;18.05;100.00;98691.44;4171701;28;20049;-73
2023/08/17 06:09:09;;;;;;;3.05;1.90;;;;;;;18.10;100.00;98688.13;4172660;28;20282;-73
2023/08/17 06:11:10;;;;;;;2.95;2.38;;;;;;;18.15;100.00;98698.88;4172254;28;20099;-73
2023/08/17 06:13:10;;;;;;;4.22;2.47;;;;;;;18.18;100.00;98686.81;4170889;28;20486;-73
2023/08/17 06:15:10;;;;;;;2.58;2.00;;;;;;;18.17;100.00;98693.63;4172741;28;20041;-73
2023/08/17 06:17:10;;;;;;;2.80;2.10;;;;;;;18.17;100.00;98704.84;4171739;28;20037;-73
2023/08/17 06:19:11;;;;;;;2.90;2.00;;;;;;;18.16;100.00;98697.66;4172418;28;20079;-73
2023/08/17 06:21:11;;;;;;;4.47;1.83;;;;;;;18.18;100.00;98707.22;4172300;28;20045;-73
2023/08/17 06:23:11;;;;;;;2.42;1.83;;;;;;;18.24;100.00;98708.31;4171629;28;20048;-74
2023/08/17 06:25:12;;;;;;;3.00;2.40;;;;;;;18.35;100.00;98708.16;4171795;28;20041;-74
2023/08/17 06:27:14;;;;;;;3.05;2.53;;;;;;;18.42;100.00;98710.03;4172214;28;20099;-74
2023/08/17 06:29:14;;;;;;;4.40;2.63;;;;;;;18.42;100.00;98712.84;4172512;28;20416;-74
2023/08/17 06:31:15;;;;;;;3.08;1.90;;;;;;;18.43;100.00;98715.22;4170504;28;20124;-74
2023/08/17 06:33:15;;;;;;;4.03;2.70;;;;;;;18.43;100.00;98711.63;4171113;28;20645;-74
2023/08/17 06:35:15;;;;;;;2.90;1.75;;;;;;;18.47;100.00;98710.38;4171695;28;20049;-73
2023/08/17 06:37:16;;;;;;;3.40;2.50;;;;;;;18.53;100.00;98711.47;4172126;28;20049;-74
2023/08/17 06:39:16;;;;;;;3.67;2.20;;;;;;;18.59;100.00;98719.38;4172234;28;20513;-74
2023/08/17 06:41:17;;;;;;;5.72;2.53;;;;;;;18.63;100.00;98720.13;4172275;28;20061;-74
2023/08/17 06:43:18;;;;;;;3.72;2.38;;;;;;;18.63;100.00;98717.31;4171619;28;20091;-74
2023/08/17 06:45:18;;;;;;;3.08;2.40;;;;;;;18.68;100.00;98716.84;4173091;28;20204;-74
2023/08/17 06:47:18;;;;;;;3.97;2.75;;;;;;;18.72;100.00;98717.59;4171676;28;20049;-74
2023/08/17 06:49:19;;;;;;;3.17;2.45;;;;;;;18.77;100.00;98717.88;4172261;28;20501;-74
2023/08/17 06:51:19;;;;;;;2.85;2.55;;;;;;;18.88;100.00;98712.09;4172289;28;20485;-74
2023/08/17 06:53:19;;;;;;;3.42;2.63;;;;;;;18.98;100.00;98724.31;4171563;28;20080;-74
2023/08/17 06:55:20;;;;;;;3.75;3.00;;;;;;;19.08;100.00;98720.53;4172658;28;20051;-74
2023/08/17 06:57:21;;;;;;;5.40;2.85;;;;;;;19.21;100.00;98720.69;4171983;28;20049;-74
2023/08/17 06:59:22;;;;;;;4.53;2.63;;;;;;;19.22;100.00;98716.66;4171773;28;20049;-74
2023/08/17 07:01:22;;;;;;;4.82;3.00;;;;;;;19.21;100.00;98717.88;4172504;28;20214;-74
2023/08/17 07:03:22;;;;;;;2.85;2.53;;;;;;;19.26;100.00;98720.97;4169988;28;20512;-74
2023/08/17 07:05:23;;;;;;;3.97;2.38;;;;;;;19.39;100.00;98723.94;4171906;28;20055;-74
2023/08/17 07:07:24;;;;;;;3.50;2.95;;;;;;;19.42;100.00;98720.25;4171945;28;20076;-74
2023/08/17 07:09:24;;;;;;;4.50;2.58;;;;;;;19.49;100.00;98708.09;4172115;28;20081;-73
2023/08/17 07:11:25;;;;;;;3.53;2.80;;;;;;;19.62;100.00;98723.88;4172005;28;20088;-74
2023/08/17 07:13:25;;;;;;;3.55;2.58;;;;;;;19.78;100.00;98722.38;4172421;28;20140;-73
2023/08/17 07:15:25;;;;;;;4.57;3.38;;;;;;;19.86;100.00;98723.78;4175228;28;20040;-73
2023/08/17 07:17:26;;;;;;;4.78;3.70;;;;;;;19.84;100.00;98727.00;4174523;28;20087;-74
2023/08/17 07:19:27;;;;;;;3.40;3.00;;;;;;;19.79;100.00;98733.16;4175023;28;20088;-74
2023/08/17 07:21:27;;;;;;;4.57;3.08;;;;;;;19.79;100.00;98726.75;4175018;28;20311;-74
2023/08/17 07:23:27;;;;;;;5.50;3.58;;;;;;;19.77;100.00;98729.19;4174466;28;20040;-74
2023/08/17 07:25:28;;;;;;;4.13;3.72;;;;;;;19.76;100.00;98724.78;4174731;28;20443;-74
2023/08/17 07:27:28;;;;;;;5.50;3.42;;;;;;;19.77;100.00;98729.19;4174638;28;20048;-74
2023/08/17 07:29:28;;;;;;;5.93;3.75;;;;;;;19.79;100.00;98727.53;4175091;28;20540;-74
2023/08/17 07:31:29;;;;;;;4.15;3.42;;;;;;;19.83;100.00;98733.06;4174779;28;20049;-74
2023/08/17 07:33:29;;;;;;;4.82;3.97;;;;;;;19.88;100.00;98727.75;4173747;28;20136;-74
2023/08/17 07:35:29;;;;;;;4.10;3.28;;;;;;;19.96;100.00;98727.59;4175352;28;20081;-74
2023/08/17 07:37:33;;;;;;;5.13;3.95;;;;;;;20.00;100.00;98731.09;4174531;28;20099;-74
2023/08/17 07:39:33;;;;;;;5.05;4.18;;;;;;;20.05;100.00;98734.19;4174909;28;20055;-74
2023/08/17 07:41:33;;;;;;;4.20;3.80;;;;;;;20.12;100.00;98733.25;4174525;28;20120;-74
2023/08/17 07:43:34;;;;;;;4.35;3.95;;;;;;;20.19;100.00;98733.88;4174597;28;20041;-74
2023/08/17 07:45:34;;;;;;;7.10;4.28;;;;;;;20.25;100.00;98727.72;4174645;28;20136;-74
2023/08/17 07:47:38;;;;;;;4.10;3.40;;;;;;;20.29;100.00;98729.22;4174035;28;20053;-74
2023/08/17 07:49:38;;;;;;;6.07;3.70;;;;;;;20.33;100.00;98717.88;4174628;28;20814;-74
2023/08/17 07:51:38;;;;;;;4.15;3.75;;;;;;;20.36;100.00;98733.88;4174392;28;20055;-73
2023/08/17 07:53:39;;;;;;;4.85;3.72;;;;;;;20.36;100.00;98743.09;4173864;28;20063;-74
2023/08/17 07:55:40;;;;;;;4.88;4.38;;;;;;;20.32;100.00;98735.97;4174334;28;20507;-74
2023/08/17 07:57:40;;;;;;;4.72;4.20;;;;;;;20.30;100.00;98732.81;4174806;28;20041;-74
2023/08/17 07:59:40;;;;;;;5.03;3.90;;;;;;;20.22;100.00;98725.78;4174466;28;20048;-74
2023/08/17 08:01:41;;;;;;;7.95;4.00;;;;;;;20.20;100.00;98724.22;4174025;28;20079;-74
2023/08/17 08:03:42;;;;;;;7.90;4.20;;;;;;;20.24;100.00;98723.31;4173762;28;20049;-74
2023/08/17 08:05:42;;;;;;;6.25;4.18;;;;;;;20.29;100.00;98720.00;4174038;28;20047;-74
2023/08/17 08:07:42;;;;;;;5.68;4.13;;;;;;;20.30;100.00;98713.16;4174460;28;20496;-74
2023/08/17 08:09:43;;;;;;;5.78;4.07;;;;;;;20.35;100.00;98718.22;4174365;28;20124;-74
2023/08/17 08:11:43;;;;;;;5.32;4.20;;;;;;;20.39;100.00;98722.53;4172991;28;20079;-74
2023/08/17 08:13:43;;;;;;;4.97;3.97;;;;;;;20.44;100.00;98708.00;4173345;28;20045;-74
2023/08/17 08:15:44;;;;;;;4.28;3.83;;;;;;;20.50;100.00;98716.69;4173512;28;20040;-74
2023/08/17 08:17:44;;;;;;;5.95;4.55;;;;;;;20.51;100.00;98714.66;4174485;28;20427;-74
2023/08/17 08:19:45;;;;;;;5.70;4.97;;;;;;;20.53;100.00;98718.63;4174258;28;20404;-74
2023/08/17 08:21:45;;;;;;;6.10;5.18;;;;;;;20.51;100.00;98721.06;4174186;28;20195;-74
2023/08/17 08:23:45;;;;;;;6.00;5.40;;;;;;;20.55;100.00;98723.81;4173672;28;20157;-73
2023/08/17 08:25:46;;;;;;;7.45;5.75;;;;;;;20.52;100.00;98716.25;4173186;28;20365;-74
2023/08/17 08:27:46;;;;;;;6.05;5.32;;;;;;;20.55;100.00;98715.38;4174025;28;20074;-74
2023/08/17 08:29:46;;;;;;;7.63;5.10;;;;;;;20.57;100.00;98718.53;4172710;28;20091;-74
2023/08/17 08:31:47;;;;;;;5.80;5.18;;;;;;;20.60;100.00;98718.44;4173769;28;20139;-74
2023/08/17 08:33:47;;;;;;;6.00;5.00;;;;;;;20.63;100.00;98723.19;4172994;28;20103;-74
2023/08/17 08:35:47;;;;;;;5.45;4.95;;;;;;;20.64;100.00;98721.19;4174026;28;20698;-74
2023/08/17 08:37:47;;;;;;;6.40;5.78;;;;;;;20.64;100.00;98724.00;4174064;28;20045;-74
2023/08/17 08:39:54;;;;;;;7.90;5.80;;;;;;;20.65;100.00;98726.34;4173460;28;20685;-74
2023/08/17 08:41:55;;;;;;;6.65;5.25;;;;;;;20.72;100.00;98733.81;4173537;28;20049;-73
2023/08/17 08:43:55;;;;;;;6.40;5.38;;;;;;;20.75;100.00;98728.09;4172943;28;20182;-74
2023/08/17 08:45:58;;;;;;;5.65;5.05;;;;;;;20.79;100.00;98730.84;4174091;28;20128;-74
2023/08/17 08:48:00;;;;;;;;;;;;;;;20.86;100.00;98727.84;4173866;28;20048;-74
2023/08/17 08:50:02;;;;;;;5.85;5.20;;;;;;;20.90;100.00;98736.97;4173605;28;19916;-74
2023/08/17 08:52:06;;;;;;;8.32;6.57;;;;;;;20.93;100.00;98733.25;4173325;28;20037;-74
2023/08/17 08:54:11;;;;;;;7.50;6.70;;;;;;;20.94;100.00;98722.81;4172554;28;20040;-74
2023/08/17 08:56:12;;;;;;;7.90;6.50;;;;;;;20.96;100.00;98731.59;4173540;28;20056;-74
2023/08/17 08:58:15;;;;;;;7.30;6.35;;;;;;;20.93;100.00;98730.44;4173473;28;20067;-74
2023/08/17 09:00:17;;;;;;;7.53;6.65;;;;;;;20.91;100.00;98727.28;4173283;28;20514;-74
2023/08/17 09:02:17;;;;;;;7.22;6.38;;;;;;;20.91;100.00;98729.31;4172383;28;20040;-74
2023/08/17 09:04:18;;;;;;;7.32;6.38;;;;;;;20.97;100.00;98721.94;4172817;28;20682;-74
2023/08/17 09:06:19;;;;;;;9.25;7.07;;;;;;;21.06;100.00;98724.91;4172989;28;20079;-74
2023/08/17 09:08:27;;;;;;;6.55;5.88;;;;;;;21.18;100.00;98720.53;4173514;28;20389;-74
2023/08/17 09:10:28;;;;;;;7.22;6.05;;;;;;;21.25;100.00;98732.41;4173536;28;20456;-74
2023/08/17 09:12:29;;;;;;;7.55;6.03;;;;;;;21.35;100.00;98722.13;4172901;28;20043;-74
2023/08/17 09:14:29;;;;;;;7.97;6.03;;;;;;;21.31;100.00;98722.22;4172908;28;20309;-74
2023/08/17 09:16:30;;;;;;;7.45;6.18;;;;;;;21.33;100.00;98716.13;4173111;28;20053;-74
2023/08/17 09:18:31;;;;;;;6.70;5.97;;;;;;;21.43;100.00;98720.69;4173376;28;20036;-74
2023/08/17 09:20:42;;;;;;;7.00;5.88;;;;;;;21.48;100.00;98719.34;4173285;28;20136;-74
2023/08/17 09:22:43;;;;;;;6.53;5.72;;;;;;;21.49;100.00;98727.34;4172522;28;20087;-74